createdAt,value
2023-02-23T00:02:19.875Z,6.19
2023-02-23T00:04:48.159Z,6.20
2023-02-23T00:07:22.194Z,6.35
2023-02-23T00:09:48.958Z,6.32
2023-02-23T00:12:18.168Z,6.32
2023-02-23T00:14:48.188Z,6.18
2023-02-23T00:17:17.731Z,6.22
2023-02-23T00:19:51.782Z,6.13
2023-02-23T00:22:21.800Z,6.13
2023-02-23T00:24:50.226Z,6.13
2023-02-23T00:27:21.164Z,6.25
2023-02-23T00:29:49.593Z,6.25
2023-02-23T00:32:20.090Z,6.21
2023-02-23T00:34:49.931Z,6.32
2023-02-23T00:37:21.994Z,6.22
2023-02-23T00:39:49.131Z,6.30
2023-02-23T00:42:18.989Z,6.28
2023-02-23T00:44:47.754Z,6.29
2023-02-23T00:47:20.113Z,6.21
2023-02-23T00:49:49.296Z,6.31
2023-02-23T00:52:23.355Z,6.40
2023-02-23T00:54:50.064Z,6.42
2023-02-23T00:57:16.698Z,6.50
2023-02-23T01:00:00.844Z,6.60
2023-02-23T01:02:34.752Z,6.73
2023-02-23T01:05:04.141Z,6.61
2023-02-23T01:07:33.231Z,6.68
2023-02-23T01:10:08.753Z,6.78
2023-02-23T01:12:35.471Z,6.65
2023-02-23T01:15:08.488Z,6.65
2023-02-23T01:17:40.221Z,6.60
2023-02-23T01:20:16.045Z,6.61
2023-02-23T01:22:44.094Z,6.65
2023-02-23T01:25:12.745Z,6.63
2023-02-23T01:27:40.642Z,6.56
2023-02-23T01:30:11.263Z,6.62
2023-02-23T01:32:41.200Z,6.56
2023-02-23T01:35:09.438Z,6.47
2023-02-23T01:37:40.574Z,6.49
2023-02-23T01:40:28.919Z,6.52
2023-02-23T01:43:17.584Z,6.48
2023-02-23T01:45:45.919Z,6.45
2023-02-23T01:48:21.925Z,6.49
2023-02-23T01:50:52.767Z,6.48
2023-02-23T01:53:21.468Z,6.50
2023-02-23T01:55:59.154Z,6.48
2023-02-23T01:58:27.480Z,6.50
2023-02-23T02:00:56.422Z,6.52
2023-02-23T02:04:00.361Z,6.56
2023-02-23T02:06:28.891Z,6.57
2023-02-23T02:08:58.445Z,6.65
2023-02-23T02:11:36.188Z,6.72
2023-02-23T02:14:13.006Z,6.76
2023-02-23T02:17:02.512Z,6.70
2023-02-23T02:19:41.050Z,6.78
2023-02-23T02:22:36.122Z,6.74
2023-02-23T02:25:27.595Z,6.75
2023-02-23T02:28:31.618Z,6.70
2023-02-23T02:31:07.960Z,6.69
2023-02-23T02:34:00.884Z,6.65
2023-02-23T02:36:36.428Z,6.64
2023-02-23T02:39:24.130Z,6.63
2023-02-23T02:42:30.264Z,6.67
2023-02-23T02:45:14.963Z,6.63
2023-02-23T02:47:58.653Z,6.69
2023-02-23T02:50:55.628Z,6.69
2023-02-23T02:53:47.567Z,6.66
2023-02-23T02:56:19.899Z,6.65
2023-02-23T02:58:50.054Z,6.65
2023-02-23T03:01:37.025Z,6.67
2023-02-23T03:04:42.481Z,6.69
2023-02-23T03:07:59.326Z,6.72
2023-02-23T03:10:55.605Z,6.67
2023-02-23T03:14:11.722Z,6.68
2023-02-23T03:17:06.225Z,6.66
2023-02-23T03:19:55.773Z,6.67
2023-02-23T03:22:47.115Z,6.70
2023-02-23T03:25:40.840Z,6.70
2023-02-23T03:28:30.765Z,6.71
2023-02-23T03:31:40.141Z,6.71
2023-02-23T03:34:33.135Z,6.70
2023-02-23T03:37:50.001Z,6.74
2023-02-23T03:40:45.326Z,6.72
2023-02-23T03:43:37.283Z,6.69
2023-02-23T03:46:25.906Z,6.69
2023-02-23T03:49:12.257Z,6.67
2023-02-23T03:51:58.817Z,6.70
2023-02-23T03:54:49.305Z,6.69
2023-02-23T03:57:36.534Z,6.73
2023-02-23T04:00:24.361Z,6.67
2023-02-23T04:03:11.227Z,6.66
2023-02-23T04:05:58.436Z,6.66
2023-02-23T04:08:47.198Z,6.70
2023-02-23T04:11:58.410Z,6.65
2023-02-23T04:15:03.519Z,6.67
2023-02-23T04:17:30.987Z,6.65
2023-02-23T04:19:57.712Z,6.67
2023-02-23T04:22:24.694Z,6.68
2023-02-23T04:24:51.781Z,6.63
2023-02-23T04:27:18.661Z,6.67
2023-02-23T04:29:45.542Z,6.63
2023-02-23T04:32:23.899Z,6.56
2023-02-23T04:34:50.791Z,6.66
2023-02-23T04:37:17.611Z,6.61
2023-02-23T04:39:57.608Z,6.59
2023-02-23T04:42:24.352Z,6.68
2023-02-23T04:44:51.162Z,6.56
2023-02-23T04:47:33.149Z,6.55
2023-02-23T04:50:11.844Z,6.57
2023-02-23T04:52:39.042Z,6.53
2023-02-23T04:55:07.236Z,6.53
2023-02-23T04:57:43.171Z,6.53
2023-02-23T05:00:10.768Z,6.50
2023-02-23T05:02:37.399Z,6.50
2023-02-23T05:05:13.091Z,6.45
2023-02-23T05:07:39.941Z,6.48
2023-02-23T05:10:10.090Z,6.45
2023-02-23T05:12:46.953Z,6.38
2023-02-23T05:15:16.940Z,6.40
2023-02-23T05:20:39.570Z,6.40
2023-02-23T05:23:09.144Z,6.36
2023-02-23T05:25:45.255Z,6.33
2023-02-23T05:28:25.309Z,6.33
2023-02-23T05:30:58.567Z,6.33
2023-02-23T05:33:28.858Z,6.36
2023-02-23T05:35:55.764Z,6.40
2023-02-23T05:38:27.248Z,6.33
2023-02-23T05:41:07.943Z,6.29
2023-02-23T05:43:38.301Z,6.25
2023-02-23T05:46:13.291Z,6.24
2023-02-23T05:48:41.866Z,6.23
2023-02-23T05:51:12.241Z,6.21
2023-02-23T05:53:41.911Z,6.24
2023-02-23T05:56:13.531Z,6.22
2023-02-23T05:58:40.363Z,6.18
2023-02-23T06:01:14.922Z,6.16
2023-02-23T06:03:41.558Z,6.14
2023-02-23T06:06:08.248Z,6.12
2023-02-23T06:08:34.884Z,6.09
2023-02-23T06:11:01.653Z,6.11
2023-02-23T06:13:30.493Z,6.01
2023-02-23T06:15:59.264Z,5.97
2023-02-23T06:18:26.891Z,5.95
2023-02-23T06:21:03.978Z,5.95
2023-02-23T06:23:31.714Z,5.96
2023-02-23T06:25:59.877Z,5.97
2023-02-23T06:28:29.857Z,6.01
2023-02-23T06:30:57.262Z,6.04
2023-02-23T06:33:24.444Z,6.05
2023-02-23T06:35:53.181Z,6.06
2023-02-23T06:38:28.072Z,6.06
2023-02-23T06:40:54.753Z,6.11
2023-02-23T06:43:23.913Z,6.13
2023-02-23T06:45:52.877Z,6.17
2023-02-23T06:48:22.003Z,6.16
2023-02-23T06:50:48.622Z,6.16
2023-02-23T06:53:25.093Z,6.13
2023-02-23T06:55:51.749Z,6.21
2023-02-23T06:58:25.714Z,6.17
2023-02-23T07:00:56.805Z,6.19
2023-02-23T07:03:23.982Z,6.20
2023-02-23T07:05:52.240Z,6.24
2023-02-23T07:08:26.533Z,6.25
2023-02-23T07:10:53.293Z,6.26
2023-02-23T07:13:23.334Z,6.29
2023-02-23T07:16:08.208Z,6.31
2023-02-23T07:18:35.304Z,6.33
2023-02-23T07:21:09.087Z,6.41
2023-02-23T07:23:35.842Z,6.42
2023-02-23T07:26:02.484Z,6.39
2023-02-23T07:28:29.227Z,6.41
2023-02-23T07:30:57.470Z,6.49
2023-02-23T07:33:25.844Z,6.54
2023-02-23T07:35:55.055Z,6.54
2023-02-23T07:38:24.269Z,6.53
2023-02-23T07:40:58.386Z,6.54
2023-02-23T07:43:25.081Z,6.59
2023-02-23T07:45:54.284Z,6.59
2023-02-23T07:48:31.367Z,6.52
2023-02-23T07:50:58.034Z,6.53
2023-02-23T07:53:27.762Z,6.55
2023-02-23T07:56:01.294Z,6.64
2023-02-23T07:58:28.251Z,6.63
2023-02-23T08:00:55.193Z,6.69
2023-02-23T08:03:32.338Z,6.70
2023-02-23T08:05:58.981Z,6.77
2023-02-23T08:08:26.077Z,6.71
2023-02-23T08:11:02.288Z,6.71
2023-02-23T08:13:29.878Z,6.74
2023-02-23T08:15:56.978Z,6.80
2023-02-23T08:18:33.687Z,6.79
2023-02-23T08:21:04.510Z,6.87
2023-02-23T08:23:32.650Z,6.85
2023-02-23T08:26:06.927Z,6.83
2023-02-23T08:28:33.605Z,6.81
2023-02-23T08:31:00.394Z,6.83
2023-02-23T08:33:27.060Z,6.85
2023-02-23T08:35:56.110Z,6.91
2023-02-23T08:38:22.773Z,6.98
2023-02-23T08:40:53.700Z,6.95
2023-02-23T08:43:28.460Z,6.95
2023-02-23T08:45:55.437Z,7.02
2023-02-23T08:48:25.234Z,6.97
2023-02-23T08:50:57.696Z,6.96
2023-02-23T08:53:25.692Z,7.03
2023-02-23T08:56:03.755Z,7.05
2023-02-23T08:58:31.269Z,7.13
2023-02-23T09:00:58.428Z,7.05
2023-02-23T09:03:26.541Z,7.01
2023-02-23T09:05:55.753Z,6.79
2023-02-23T09:08:25.561Z,6.76
2023-02-23T09:10:54.647Z,6.69
2023-02-23T09:13:28.668Z,6.74
2023-02-23T09:15:55.387Z,6.66
2023-02-23T09:18:27.884Z,6.50
2023-02-23T09:20:54.548Z,6.52
2023-02-23T09:23:28.282Z,6.42
2023-02-23T09:25:54.915Z,6.53
2023-02-23T09:28:24.198Z,6.39
2023-02-23T09:31:07.084Z,6.51
2023-02-23T09:33:33.998Z,6.50
2023-02-23T09:36:00.758Z,6.54
2023-02-23T09:38:30.784Z,6.57
2023-02-23T09:40:57.478Z,6.71
2023-02-23T09:43:45.215Z,6.77
2023-02-23T09:46:33.548Z,6.69
2023-02-23T09:49:01.348Z,6.67
2023-02-23T09:51:29.708Z,6.74
2023-02-23T09:54:01.919Z,6.69
2023-02-23T09:56:42.917Z,6.71
2023-02-23T09:59:17.992Z,6.77
2023-02-23T10:02:00.710Z,6.64
2023-02-23T10:04:30.737Z,6.63
2023-02-23T10:07:00.622Z,6.70
2023-02-23T10:09:43.096Z,6.81
2023-02-23T10:12:15.876Z,6.87
2023-02-23T10:15:00.815Z,6.79
2023-02-23T10:17:39.691Z,6.62
2023-02-23T10:20:28.310Z,6.59
2023-02-23T10:22:58.359Z,6.66
2023-02-23T10:25:27.735Z,6.64
2023-02-23T10:27:55.952Z,6.70
2023-02-23T10:30:30.285Z,6.72
2023-02-23T10:33:21.003Z,6.73
2023-02-23T10:35:48.921Z,6.75
2023-02-23T10:38:23.484Z,6.81
2023-02-23T10:41:01.672Z,6.88
2023-02-23T10:43:28.389Z,6.82
2023-02-23T10:45:55.804Z,6.92
2023-02-23T10:48:29.978Z,6.84
2023-02-23T10:51:02.971Z,6.96
2023-02-23T10:53:40.204Z,6.93
2023-02-23T10:56:13.834Z,6.93
2023-02-23T10:58:51.782Z,6.91
2023-02-23T11:01:42.009Z,6.95
2023-02-23T11:04:36.738Z,7.05
2023-02-23T11:07:20.392Z,7.09
2023-02-23T11:09:48.338Z,7.03
2023-02-23T11:12:24.077Z,7.02
2023-02-23T11:14:53.173Z,7.09
2023-02-23T11:17:39.134Z,7.02
2023-02-23T11:20:06.024Z,7.20
2023-02-23T11:22:35.849Z,7.24
2023-02-23T11:25:15.940Z,7.40
2023-02-23T11:27:51.516Z,7.38
2023-02-23T11:30:21.675Z,7.61
2023-02-23T11:32:52.466Z,7.56
2023-02-23T11:35:21.979Z,7.58
2023-02-23T11:37:49.546Z,7.62
2023-02-23T11:40:19.200Z,7.58
2023-02-23T11:43:07.235Z,7.66
2023-02-23T11:45:51.326Z,7.51
2023-02-23T11:48:28.730Z,7.69
2023-02-23T11:50:56.062Z,7.70
2023-02-23T11:53:36.366Z,7.76
2023-02-23T11:56:11.184Z,7.71
2023-02-23T11:58:49.882Z,7.66
2023-02-23T12:01:23.649Z,7.59
2023-02-23T12:03:56.555Z,7.50
2023-02-23T12:06:33.251Z,7.62
2023-02-23T12:09:02.921Z,7.78
2023-02-23T12:11:47.067Z,7.74
2023-02-23T12:14:25.816Z,7.81
2023-02-23T12:17:05.915Z,7.77
2023-02-23T12:19:48.333Z,7.76
2023-02-23T12:22:35.171Z,7.84
2023-02-23T12:25:14.765Z,7.79
2023-02-23T12:27:46.522Z,7.70
2023-02-23T12:30:25.613Z,7.66
2023-02-23T12:32:58.094Z,7.55
2023-02-23T12:35:55.785Z,7.56
2023-02-23T12:38:41.485Z,7.66
2023-02-23T12:41:13.736Z,7.73
2023-02-23T12:43:51.472Z,7.65
2023-02-23T12:46:28.976Z,7.57
2023-02-23T12:49:21.694Z,7.70
2023-02-23T12:52:06.851Z,7.59
2023-02-23T12:54:37.613Z,7.42
2023-02-23T12:57:14.516Z,7.33
2023-02-23T12:59:47.382Z,7.29
2023-02-23T13:02:17.397Z,7.23
2023-02-23T13:04:47.313Z,7.22
2023-02-23T13:07:23.350Z,7.18
2023-02-23T13:10:01.495Z,7.13
2023-02-23T13:12:36.829Z,7.24
2023-02-23T13:15:20.003Z,7.17
2023-02-23T13:18:14.535Z,7.19
2023-02-23T13:20:43.759Z,7.13
2023-02-23T13:23:41.807Z,7.21
2023-02-23T13:26:27.707Z,7.10
2023-02-23T13:29:03.280Z,7.10
2023-02-23T13:39:28.105Z,6.97
2023-02-23T13:43:14.685Z,6.87
2023-02-23T13:50:47.753Z,6.71
2023-02-23T13:54:31.227Z,6.67
2023-02-23T14:01:37.131Z,6.59
2023-02-23T14:04:23.119Z,6.61
2023-02-23T14:07:03.948Z,6.57
2023-02-23T14:09:33.046Z,6.56
2023-02-23T14:12:10.490Z,6.59
2023-02-23T14:14:49.035Z,6.55
2023-02-23T14:17:19.979Z,6.63
2023-02-23T14:20:17.967Z,6.54
2023-02-23T14:23:16.370Z,6.55
2023-02-23T14:25:53.974Z,6.65
2023-02-23T14:28:31.204Z,6.62
2023-02-23T14:31:13.323Z,6.65
2023-02-23T14:33:43.163Z,6.71
2023-02-23T14:36:22.314Z,6.60
2023-02-23T14:38:53.055Z,6.56
2023-02-23T14:41:37.998Z,6.57
2023-02-23T14:44:27.173Z,6.47
2023-02-23T14:47:02.423Z,6.47
2023-02-23T14:49:35.540Z,6.46
2023-02-23T14:52:14.561Z,6.54
2023-02-23T14:54:41.685Z,6.52
2023-02-23T14:57:22.747Z,6.54
2023-02-23T15:00:12.305Z,6.40
2023-02-23T15:02:53.654Z,6.28
2023-02-23T15:05:24.504Z,6.17
2023-02-23T15:07:52.296Z,6.11
2023-02-23T15:10:25.151Z,6.04
2023-02-23T15:12:52.182Z,6.05
2023-02-23T15:15:24.097Z,6.04
2023-02-23T15:17:53.769Z,6.01
2023-02-23T15:20:24.096Z,6.04
2023-02-23T15:22:55.385Z,6.03
2023-02-23T15:25:26.218Z,6.00
2023-02-23T15:27:53.366Z,6.04
2023-02-23T15:30:32.039Z,6.11
2023-02-23T15:33:00.774Z,6.00
2023-02-23T15:35:28.630Z,5.98
2023-02-23T15:38:05.797Z,5.97
2023-02-23T15:40:43.663Z,5.93
2023-02-23T15:43:11.334Z,5.91
2023-02-23T15:45:47.666Z,6.02
2023-02-23T15:48:18.578Z,5.92
2023-02-23T15:50:53.146Z,5.88
2023-02-23T15:53:29.145Z,5.89
2023-02-23T15:56:00.876Z,5.88
2023-02-23T15:58:30.977Z,5.85
2023-02-23T16:01:06.096Z,5.82
2023-02-23T16:03:38.153Z,5.80
2023-02-23T16:06:06.885Z,5.78
2023-02-23T16:08:36.788Z,5.75
2023-02-23T16:11:16.043Z,5.78
2023-02-23T16:13:44.728Z,5.82
2023-02-23T16:16:19.584Z,5.77
2023-02-23T16:18:55.222Z,5.79
2023-02-23T16:21:24.512Z,5.76
2023-02-23T16:23:54.912Z,5.79
2023-02-23T16:26:29.240Z,5.76
2023-02-23T16:29:01.076Z,5.73
2023-02-23T16:31:50.425Z,5.75
2023-02-23T16:34:25.720Z,5.76
2023-02-23T16:37:00.607Z,5.74
2023-02-23T16:39:31.803Z,5.69
2023-02-23T16:41:59.805Z,5.68
2023-02-23T16:44:41.349Z,5.68
2023-02-23T16:47:12.023Z,5.72
2023-02-23T16:49:39.313Z,5.69
2023-02-23T16:52:17.550Z,5.69
2023-02-23T16:54:47.634Z,5.69
2023-02-23T16:57:22.956Z,5.64
2023-02-23T16:59:51.738Z,5.63
2023-02-23T17:02:20.368Z,5.65
2023-02-23T17:04:49.576Z,5.69
2023-02-23T17:07:18.105Z,5.71
2023-02-23T17:09:48.298Z,5.77
2023-02-23T17:12:22.228Z,5.69
2023-02-23T17:14:50.200Z,5.63
2023-02-23T17:17:19.143Z,5.71
2023-02-23T17:19:46.810Z,5.65
2023-02-23T17:22:14.568Z,5.59
2023-02-23T17:24:42.449Z,5.59
2023-02-23T17:27:09.386Z,5.57
2023-02-23T17:29:36.249Z,5.56
2023-02-23T17:32:03.719Z,5.48
2023-02-23T17:34:34.495Z,5.49
2023-02-23T17:37:02.401Z,5.45
2023-02-23T17:39:33.834Z,5.52
2023-02-23T17:42:01.205Z,5.49
2023-02-23T17:44:27.986Z,5.47
2023-02-23T17:46:55.065Z,5.48
2023-02-23T17:49:22.068Z,5.44
2023-02-23T17:51:50.312Z,5.39
2023-02-23T17:54:17.585Z,5.37
2023-02-23T17:56:47.887Z,5.39
2023-02-23T17:59:15.686Z,5.30
2023-02-23T18:01:43.404Z,5.31
2023-02-23T18:04:10.880Z,5.34
2023-02-23T18:06:39.657Z,5.30
2023-02-23T18:09:06.762Z,5.30
2023-02-23T18:11:49.284Z,5.33
2023-02-23T18:14:17.933Z,5.32
2023-02-23T18:16:48.279Z,5.37
2023-02-23T18:19:26.095Z,5.34
2023-02-23T18:21:57.414Z,5.43
2023-02-23T18:24:25.540Z,5.39
2023-02-23T18:26:52.314Z,5.34
2023-02-23T18:29:19.493Z,5.33
2023-02-23T18:31:47.939Z,5.36
2023-02-23T18:34:14.960Z,5.40
2023-02-23T18:36:43.771Z,5.36
2023-02-23T18:39:11.491Z,5.42
2023-02-23T18:41:38.235Z,5.33
2023-02-23T18:44:06.922Z,5.35
2023-02-23T18:46:34.359Z,5.32
2023-02-23T18:49:01.293Z,5.29
2023-02-23T18:51:28.341Z,5.39
2023-02-23T18:53:55.107Z,5.33
2023-02-23T18:56:25.192Z,5.30
2023-02-23T18:58:53.378Z,5.28
2023-02-23T19:01:26.677Z,4.81
2023-02-23T19:03:54.650Z,4.44
2023-02-23T19:06:23.315Z,4.43
2023-02-23T19:08:54.087Z,4.31
2023-02-23T19:11:24.118Z,4.30
2023-02-23T19:13:56.990Z,4.21
2023-02-23T19:16:24.817Z,4.15
2023-02-23T19:18:51.607Z,4.12
2023-02-23T19:21:22.765Z,4.02
2023-02-23T19:23:51.470Z,3.96
2023-02-23T19:26:18.621Z,4.00
2023-02-23T19:28:46.309Z,4.01
2023-02-23T19:31:15.963Z,3.97
2023-02-23T19:33:43.225Z,3.84
2023-02-23T19:36:14.110Z,3.70
2023-02-23T19:38:42.494Z,3.68
2023-02-23T19:41:14.015Z,3.64
2023-02-23T19:43:41.036Z,3.70
2023-02-23T19:46:13.345Z,3.74
2023-02-23T19:48:40.175Z,3.81
2023-02-23T19:51:11.273Z,3.76
2023-02-23T19:53:38.202Z,3.72
2023-02-23T19:56:10.462Z,3.70
2023-02-23T19:58:37.393Z,3.62
2023-02-23T20:01:05.723Z,3.64
2023-02-23T20:03:32.807Z,3.68
2023-02-23T20:05:59.646Z,3.63
2023-02-23T20:08:29.306Z,3.58
2023-02-23T20:10:56.056Z,3.57
2023-02-23T20:13:23.503Z,3.53
2023-02-23T20:15:50.901Z,3.55
2023-02-23T20:18:21.144Z,3.62
2023-02-23T20:21:01.957Z,3.54
2023-02-23T20:23:34.719Z,3.55
2023-02-23T20:26:05.745Z,3.57
2023-02-23T20:28:32.509Z,3.55
2023-02-23T20:31:10.124Z,3.47
2023-02-23T20:33:36.900Z,3.53
2023-02-23T20:36:03.774Z,3.51
2023-02-23T20:38:31.581Z,3.42
2023-02-23T20:41:04.167Z,3.35
2023-02-23T20:43:31.464Z,3.37
2023-02-23T20:46:02.048Z,3.33
2023-02-23T20:48:36.264Z,3.34
2023-02-23T20:51:03.077Z,3.33
2023-02-23T20:53:29.934Z,3.35
2023-02-23T20:55:58.823Z,3.32
2023-02-23T20:58:27.460Z,3.32
2023-02-23T21:01:08.573Z,3.32
2023-02-23T21:03:35.765Z,3.32
2023-02-23T21:06:02.522Z,3.30
2023-02-23T21:08:30.502Z,3.31
2023-02-23T21:10:59.924Z,3.31
2023-02-23T21:13:28.702Z,3.30
2023-02-23T21:16:01.500Z,3.32
2023-02-23T21:18:29.567Z,3.26
2023-02-23T21:20:57.008Z,3.23
2023-02-23T21:23:24.572Z,3.21
2023-02-23T21:25:53.975Z,3.18
2023-02-23T21:28:21.164Z,3.18
2023-02-23T21:30:48.115Z,3.14
2023-02-23T21:33:15.067Z,3.18
2023-02-23T21:35:41.732Z,3.19
2023-02-23T21:38:10.456Z,3.23
2023-02-23T21:40:42.120Z,3.19
2023-02-23T21:43:09.244Z,3.18
2023-02-23T21:45:39.038Z,3.18
2023-02-23T21:48:05.711Z,3.17
2023-02-23T21:50:33.206Z,3.15
2023-02-23T21:52:59.972Z,3.14
2023-02-23T21:55:35.518Z,3.16
2023-02-23T21:58:03.069Z,3.23
2023-02-23T22:00:31.082Z,3.18
2023-02-23T22:02:57.989Z,3.14
2023-02-23T22:05:24.683Z,3.11
2023-02-23T22:07:54.560Z,3.12
2023-02-23T22:10:22.942Z,3.11
2023-02-23T22:12:53.083Z,3.11
2023-02-23T22:15:19.933Z,3.12
2023-02-23T22:17:46.604Z,2.98
2023-02-23T22:20:13.655Z,2.90
2023-02-23T22:22:40.460Z,2.89
2023-02-23T22:25:08.055Z,2.84
2023-02-23T22:27:34.794Z,2.87
2023-02-23T22:30:01.941Z,2.80
2023-02-23T22:32:32.803Z,2.68
2023-02-23T22:35:01.059Z,2.61
2023-02-23T22:37:31.561Z,2.51
2023-02-23T22:40:00.095Z,2.44
2023-02-23T22:42:29.763Z,2.37
2023-02-23T22:44:57.118Z,2.29
2023-02-23T22:47:24.184Z,2.30
2023-02-23T22:49:50.888Z,2.23
2023-02-23T22:52:17.679Z,2.04
2023-02-23T22:54:45.679Z,1.87
2023-02-23T22:57:18.243Z,1.80
2023-02-23T23:00:03.021Z,1.73
2023-02-23T23:02:38.570Z,1.62
2023-02-23T23:05:07.272Z,1.55
2023-02-23T23:07:39.191Z,1.54
2023-02-23T23:10:09.539Z,1.63
2023-02-23T23:12:40.362Z,1.64
2023-02-23T23:15:14.829Z,1.58
2023-02-23T23:17:48.918Z,1.63
2023-02-23T23:20:18.096Z,1.83
2023-02-23T23:22:44.868Z,1.93
2023-02-23T23:25:18.996Z,2.02
2023-02-23T23:27:45.668Z,2.01
2023-02-23T23:30:12.919Z,2.06
2023-02-23T23:32:40.919Z,2.13
2023-02-23T23:35:10.947Z,2.15
2023-02-23T23:37:39.825Z,2.16
2023-02-23T23:40:14.405Z,2.11
2023-02-23T23:42:45.907Z,2.05
2023-02-23T23:45:17.876Z,2.01
2023-02-23T23:47:45.603Z,1.94
2023-02-23T23:50:13.517Z,1.89
2023-02-23T23:52:43.603Z,1.76
2023-02-23T23:55:12.292Z,1.68
2023-02-23T23:57:42.228Z,1.68
